Time;durP1;ratioP1;P1;durP2;ratioP2;P2;SDS_P1;SDS_P2;PMS_P1;PMS_P2;Temp;Humidity;BMP_temperature;BMP_pressure;BME280_temperature;BME280_humidity;BME280_pressure;Samples;Min_cycle;Max_cycle;Signal;HPM_P1;HPM_P2
2021/11/14 00:00:33;;;;;;;54.83;32.58;;;10.60;99.90;;;;;;5042035;28;20037;-83
2021/11/14 00:03:01;;;;;;;55.53;33.58;;;10.60;99.90;;;;;;5039443;28;20037;-83
2021/11/14 00:05:31;;;;;;;51.67;33.65;;;10.80;99.90;;;;;;5019610;28;20045;-83
2021/11/14 00:07:57;;;;;;;52.03;32.63;;;10.60;99.90;;;;;;5037917;28;20047;-83
2021/11/14 00:10:23;;;;;;;48.30;32.25;;;10.60;99.90;;;;;;5038856;28;20048;-84
2021/11/14 00:12:55;;;;;;;49.90;32.25;;;10.60;99.90;;;;;;5024021;28;20037;-83
2021/11/14 00:15:27;;;;;;;48.40;31.10;;;10.60;99.90;;;;;;5038867;28;20037;-83
2021/11/14 00:17:54;;;;;;;50.83;30.08;;;10.60;99.90;;;;;;5038493;28;20044;-83
2021/11/14 00:20:23;;;;;;;52.15;32.08;;;10.60;99.90;;;;;;5055137;28;20499;-82
2021/11/14 00:22:49;;;;;;;52.35;32.33;;;10.90;99.90;;;;;;5033188;28;20039;-83
2021/11/14 00:25:17;;;;;;;47.80;30.83;;;10.60;99.90;;;;;;5029828;28;20044;-83
2021/11/14 00:27:47;;;;;;;48.13;31.27;;;10.80;99.90;;;;;;5055529;28;20044;-83
2021/11/14 00:30:20;;;;;;;53.55;32.28;;;10.50;99.90;;;;;;5039290;28;20083;-83
2021/11/14 00:32:47;;;;;;;49.25;30.75;;;10.50;99.90;;;;;;5055816;28;20110;-82
2021/11/14 00:35:16;;;;;;;50.90;32.03;;;10.50;99.90;;;;;;5038798;28;20071;-82
2021/11/14 00:37:45;;;;;;;51.08;32.60;;;10.50;99.90;;;;;;5038780;28;20044;-83
2021/11/14 00:40:15;;;;;;;46.50;31.50;;;10.50;99.90;;;;;;5054572;28;20032;-83
2021/11/14 00:42:42;;;;;;;52.03;32.08;;;10.20;99.90;;;;;;5055049;28;20111;-83
2021/11/14 00:45:08;;;;;;;50.17;32.50;;;10.60;99.90;;;;;;5055338;28;20035;-83
2021/11/14 00:47:34;;;;;;;54.92;32.47;;;10.50;99.90;;;;;;5055558;28;20082;-82
2021/11/14 00:50:06;;;;;;;54.45;33.00;;;10.40;99.90;;;;;;5038376;28;20040;-83
2021/11/14 00:52:33;;;;;;;48.58;31.30;;;10.50;99.90;;;;;;5037914;28;20123;-83
2021/11/14 00:54:59;;;;;;;52.30;32.70;;;10.60;99.90;;;;;;5055329;28;20500;-83
2021/11/14 00:57:25;;;;;;;54.70;33.00;;;10.60;99.90;;;;;;5017285;28;20128;-83
2021/11/14 00:59:53;;;;;;;58.95;34.78;;;10.70;99.90;;;;;;5023572;28;20083;-83
2021/11/14 01:02:21;;;;;;;58.58;33.00;;;10.60;99.90;;;;;;5038301;28;20377;-83
2021/11/14 01:04:47;;;;;;;57.63;32.30;;;10.60;99.90;;;;;;5037691;28;20444;-80
2021/11/14 01:07:13;;;;;;;51.70;32.72;;;10.60;99.90;;;;;;5029164;28;20087;-76
2021/11/14 01:09:40;;;;;;;56.97;33.45;;;10.60;99.90;;;;;;5046622;28;20064;-78
2021/11/14 01:12:09;;;;;;;53.22;32.80;;;10.60;99.90;;;;;;5037691;28;20448;-80
2021/11/14 01:14:36;;;;;;;54.55;32.90;;;10.60;99.90;;;;;;5036042;28;20067;-80
2021/11/14 01:17:03;;;;;;;56.47;32.78;;;10.50;99.90;;;;;;5054482;28;20123;-72
2021/11/14 01:19:29;;;;;;;53.13;32.88;;;10.50;99.90;;;;;;5053856;28;20041;-73
2021/11/14 01:21:58;;;;;;;52.35;32.00;;;10.50;99.90;;;;;;5054806;28;20114;-73
2021/11/14 01:24:27;;;;;;;52.53;32.63;;;10.50;99.90;;;;;;5054364;28;20048;-74
2021/11/14 01:26:52;;;;;;;51.13;32.60;;;10.50;99.90;;;;;;5072493;28;20040;-74
2021/11/14 01:29:18;;;;;;;51.83;31.52;;;10.50;99.90;;;;;;5036427;28;20084;-74
2021/11/14 01:31:44;;;;;;;50.38;31.33;;;10.50;99.90;;;;;;5054541;28;20051;-74
2021/11/14 01:34:10;;;;;;;53.08;32.70;;;10.50;99.90;;;;;;5072260;28;20477;-74
2021/11/14 01:36:36;;;;;;;57.25;34.20;;;10.50;99.90;;;;;;5046129;28;20432;-73
2021/11/14 01:39:05;;;;;;;55.67;32.97;;;10.50;99.90;;;;;;5067487;28;20416;-73
2021/11/14 01:41:31;;;;;;;54.08;32.78;;;10.50;99.90;;;;;;5070910;28;20401;-74
2021/11/14 01:43:57;;;;;;;54.60;32.83;;;10.50;99.90;;;;;;5072268;28;20047;-73
2021/11/14 01:46:23;;;;;;;52.50;31.70;;;10.50;99.90;;;;;;5070001;28;20036;-74
2021/11/14 01:48:51;;;;;;;57.65;34.35;;;10.60;99.90;;;;;;5053969;28;20443;-73
2021/11/14 01:51:18;;;;;;;54.15;32.30;;;10.50;99.90;;;;;;5072004;28;20439;-73
2021/11/14 01:53:44;;;;;;;55.75;32.53;;;10.50;99.90;;;;;;5053348;28;20049;-74
2021/11/14 01:56:13;;;;;;;50.70;31.65;;;10.40;99.90;;;;;;5072209;28;20033;-74
2021/11/14 01:58:40;;;;;;;57.55;32.45;;;10.50;99.90;;;;;;5071738;28;20119;-73
2021/11/14 02:01:10;;;;;;;58.60;32.38;;;10.40;99.90;;;;;;5072121;28;20481;-74
2021/11/14 02:03:39;;;;;;;57.75;32.97;;;10.40;99.90;;;;;;5036117;28;20485;-74
2021/11/14 02:06:06;;;;;;;60.50;32.83;;;10.40;99.90;;;;;;5071857;28;20047;-74
2021/11/14 02:08:36;;;;;;;63.10;33.08;;;10.40;99.90;;;;;;5054068;28;20040;-74
2021/11/14 02:11:03;;;;;;;61.72;32.67;;;10.30;99.90;;;;;;5057141;28;20044;-73
2021/11/14 02:13:30;;;;;;;56.85;32.67;;;10.30;99.90;;;;;;5075852;28;20078;-74
2021/11/14 02:15:57;;;;;;;57.22;32.92;;;10.90;99.90;;;;;;5057962;28;20040;-73
2021/11/14 02:18:23;;;;;;;59.25;32.78;;;10.20;99.90;;;;;;5057089;28;20067;-74
2021/11/14 02:20:51;;;;;;;59.85;32.60;;;10.70;99.90;;;;;;5055137;28;20109;-74
2021/11/14 02:23:19;;;;;;;59.50;33.75;;;10.40;99.90;;;;;;5057196;28;20388;-74
2021/11/14 02:25:47;;;;;;;58.33;31.13;;;10.20;99.90;;;;;;5075475;28;20044;-74
2021/11/14 02:28:14;;;;;;;50.22;29.30;;;10.10;99.90;;;;;;5056843;28;20059;-73
2021/11/14 02:30:41;;;;;;;56.53;30.40;;;10.60;99.90;;;;;;5037604;28;20048;-73
2021/11/14 02:33:06;;;;;;;51.03;28.52;;;10.00;99.90;;;;;;5074796;28;20488;-74
2021/11/14 02:35:33;;;;;;;47.70;27.27;;;10.10;99.90;;;;;;5075471;28;20086;-73
2021/11/14 02:38:00;;;;;;;46.47;27.83;;;10.00;99.90;;;;;;5057345;28;20534;-73
2021/11/14 02:40:26;;;;;;;46.47;28.52;;;10.30;99.90;;;;;;5057243;28;20072;-73
2021/11/14 02:42:52;;;;;;;43.63;26.30;;;10.00;99.90;;;;;;5057177;28;20075;-74
2021/11/14 02:45:21;;;;;;;43.42;26.50;;;10.00;99.90;;;;;;5055448;28;20047;-73
2021/11/14 02:47:48;;;;;;;46.75;27.63;;;10.00;99.90;;;;;;5056970;28;20055;-73
2021/11/14 02:50:15;;;;;;;45.72;27.20;;;10.10;99.90;;;;;;5057259;28;20131;-73
2021/11/14 02:52:41;;;;;;;44.13;26.75;;;10.00;99.90;;;;;;5075149;28;20388;-74
2021/11/14 02:55:10;;;;;;;46.55;27.05;;;10.00;99.90;;;;;;5075146;28;20037;-74
2021/11/14 02:57:36;;;;;;;44.88;27.42;;;10.00;99.90;;;;;;5074569;28;20044;-73
2021/11/14 03:00:08;;;;;;;44.33;26.48;;;10.00;99.90;;;;;;5074836;28;20454;-77
2021/11/14 03:02:36;;;;;;;45.33;26.50;;;10.00;99.90;;;;;;5074935;28;20369;-77
2021/11/14 03:05:10;;;;;;;50.85;28.88;;;10.00;99.90;;;;;;5055185;28;20043;-77
2021/11/14 03:07:36;;;;;;;49.72;28.80;;;10.00;99.90;;;;;;5040202;28;20459;-77
2021/11/14 03:10:05;;;;;;;50.88;28.38;;;10.00;99.90;;;;;;5074765;28;20101;-77
2021/11/14 03:12:31;;;;;;;52.60;30.33;;;10.00;99.90;;;;;;5056438;28;20040;-78
2021/11/14 03:14:58;;;;;;;59.72;31.52;;;10.00;99.90;;;;;;5040070;28;20054;-74
2021/11/14 03:17:25;;;;;;;55.90;31.73;;;10.00;99.90;;;;;;5074285;28;20032;-73
2021/11/14 03:19:51;;;;;;;63.13;32.50;;;10.00;99.90;;;;;;5072955;28;20044;-74
2021/11/14 03:22:17;;;;;;;63.78;33.50;;;10.00;99.90;;;;;;5073833;28;20127;-74
2021/11/14 03:24:44;;;;;;;66.05;33.35;;;9.90;99.90;;;;;;5039966;28;20546;-73
2021/11/14 03:27:10;;;;;;;69.13;33.60;;;9.90;99.90;;;;;;5056338;28;20074;-74
2021/11/14 03:29:37;;;;;;;70.50;33.72;;;9.90;99.90;;;;;;5040015;28;20088;-74
2021/11/14 03:32:04;;;;;;;71.90;34.25;;;9.90;99.90;;;;;;5055919;28;20072;-74
2021/11/14 03:34:31;;;;;;;73.45;35.33;;;9.90;99.90;;;;;;5039969;28;20033;-74
2021/11/14 03:36:57;;;;;;;71.75;34.65;;;10.20;99.90;;;;;;5005685;28;20043;-74
2021/11/14 03:39:23;;;;;;;76.35;35.38;;;9.90;99.90;;;;;;5055609;28;20044;-74
2021/11/14 03:41:54;;;;;;;77.18;34.47;;;9.90;99.90;;;;;;5056048;28;20396;-74
2021/11/14 03:44:20;;;;;;;77.55;36.05;;;9.90;99.90;;;;;;5056163;28;20377;-74
2021/11/14 03:46:45;;;;;;;73.65;35.05;;;9.90;99.90;;;;;;5073858;28;20036;-74
2021/11/14 03:49:11;;;;;;;86.70;37.08;;;9.80;99.90;;;;;;5073820;28;20439;-73
2021/11/14 03:51:37;;;;;;;80.68;36.97;;;9.80;99.90;;;;;;5039102;28;20048;-73
2021/11/14 03:54:02;;;;;;;74.57;34.72;;;9.90;99.90;;;;;;5038713;28;20040;-73
2021/11/14 03:56:30;;;;;;;79.15;36.05;;;9.80;99.90;;;;;;5036660;28;20085;-73
2021/11/14 03:58:57;;;;;;;69.47;34.45;;;10.20;99.90;;;;;;5039078;28;20175;-73
2021/11/14 04:01:23;;;;;;;69.03;34.45;;;9.80;99.90;;;;;;5055958;28;20067;-74
2021/11/14 04:03:52;;;;;;;70.68;32.78;;;9.90;99.90;;;;;;5073570;28;20059;-73
2021/11/14 04:06:18;;;;;;;66.05;32.67;;;9.80;99.90;;;;;;5055554;28;20041;-74
2021/11/14 04:08:44;;;;;;;65.15;32.05;;;9.80;99.90;;;;;;5055860;28;20052;-74
2021/11/14 04:11:10;;;;;;;69.63;33.08;;;9.80;99.90;;;;;;5072863;28;20029;-74
2021/11/14 04:13:37;;;;;;;67.53;32.45;;;9.70;99.90;;;;;;5037989;28;20492;-74
2021/11/14 04:16:05;;;;;;;75.07;33.75;;;9.80;99.90;;;;;;5055737;28;20149;-74
2021/11/14 04:18:31;;;;;;;69.40;32.88;;;9.80;99.90;;;;;;5055772;28;20045;-73
2021/11/14 04:20:58;;;;;;;69.63;34.35;;;9.80;99.90;;;;;;5038692;28;20047;-74
2021/11/14 04:23:24;;;;;;;77.65;35.22;;;9.90;99.90;;;;;;5055480;28;20044;-74
2021/11/14 04:25:50;;;;;;;83.85;35.33;;;9.80;99.90;;;;;;5073646;28;20127;-74
2021/11/14 04:28:18;;;;;;;79.22;36.75;;;9.80;99.90;;;;;;5054902;28;20148;-74
2021/11/14 04:30:45;;;;;;;73.63;35.28;;;9.80;99.90;;;;;;5071452;28;20047;-74
2021/11/14 04:33:11;;;;;;;73.03;34.17;;;9.90;99.90;;;;;;5054685;28;20036;-74
2021/11/14 04:35:37;;;;;;;77.13;34.00;;;9.80;99.90;;;;;;5038439;28;20055;-73
2021/11/14 04:38:03;;;;;;;75.47;34.33;;;9.80;99.90;;;;;;5021662;28;20123;-73
2021/11/14 04:40:36;;;;;;;72.47;34.38;;;9.80;99.90;;;;;;5038549;28;20459;-74
2021/11/14 04:43:03;;;;;;;68.97;34.60;;;9.80;99.90;;;;;;5055402;28;20450;-73
2021/11/14 04:45:29;;;;;;;72.40;34.88;;;9.80;99.90;;;;;;5072718;28;20090;-73
2021/11/14 04:47:55;;;;;;;78.13;34.33;;;9.70;99.90;;;;;;5053410;28;20040;-74
2021/11/14 04:50:23;;;;;;;73.20;33.30;;;9.70;99.90;;;;;;5054551;28;20047;-74
2021/11/14 04:52:50;;;;;;;82.22;35.90;;;9.70;99.90;;;;;;5054881;28;20059;-74
2021/11/14 04:55:16;;;;;;;81.15;34.30;;;9.70;99.90;;;;;;5037992;28;20040;-74
2021/11/14 04:57:42;;;;;;;76.20;34.25;;;9.60;99.90;;;;;;5072666;28;20039;-74
2021/11/14 05:00:13;;;;;;;78.75;34.78;;;9.70;99.90;;;;;;5054562;28;20044;-74
2021/11/14 05:02:38;;;;;;;73.68;33.72;;;9.70;99.90;;;;;;5050866;28;20416;-74
2021/11/14 05:05:05;;;;;;;69.43;31.65;;;9.70;99.90;;;;;;5048034;28;20037;-74
2021/11/14 05:07:30;;;;;;;66.60;32.10;;;9.70;99.90;;;;;;5037905;28;20052;-74
2021/11/14 05:09:56;;;;;;;64.13;30.75;;;9.70;99.90;;;;;;5072812;28;20045;-74
2021/11/14 05:12:22;;;;;;;62.40;32.20;;;9.70;99.90;;;;;;5070147;28;20396;-74
2021/11/14 05:14:47;;;;;;;67.13;33.35;;;9.70;99.90;;;;;;5024554;28;20052;-74
2021/11/14 05:17:13;;;;;;;70.75;33.40;;;9.70;99.90;;;;;;5054517;28;20049;-74
2021/11/14 05:19:39;;;;;;;65.50;32.60;;;9.80;99.90;;;;;;5072186;28;20037;-73
2021/11/14 05:22:04;;;;;;;64.35;31.50;;;9.70;99.90;;;;;;5054741;28;20127;-73
2021/11/14 05:24:30;;;;;;;61.03;32.40;;;9.60;99.90;;;;;;5072273;28;20118;-73
2021/11/14 05:26:57;;;;;;;62.42;31.83;;;9.60;99.90;;;;;;5054224;28;20404;-73
2021/11/14 05:29:23;;;;;;;62.90;32.72;;;9.70;99.90;;;;;;5031140;28;20084;-73
2021/11/14 05:31:49;;;;;;;59.28;30.75;;;9.60;99.90;;;;;;5072391;28;20084;-73
2021/11/14 05:34:15;;;;;;;62.03;32.60;;;9.60;99.90;;;;;;5072189;28;20041;-73
2021/11/14 05:36:41;;;;;;;60.20;30.45;;;9.60;99.90;;;;;;5037504;28;20501;-73
2021/11/14 05:39:07;;;;;;;50.47;28.75;;;9.60;99.90;;;;;;5054480;28;20079;-74
2021/11/14 05:41:32;;;;;;;52.78;30.60;;;10.20;99.90;;;;;;5053377;28;20315;-73
2021/11/14 05:43:58;;;;;;;54.60;28.42;;;9.60;99.90;;;;;;5021369;28;20075;-73
2021/11/14 05:46:24;;;;;;;45.70;26.60;;;9.60;99.90;;;;;;5057361;28;20552;-73
2021/11/14 05:48:49;;;;;;;52.58;27.08;;;9.60;99.90;;;;;;5058389;28;20455;-74
2021/11/14 05:51:15;;;;;;;45.38;26.30;;;9.70;99.90;;;;;;5041224;28;20561;-73
2021/11/14 05:53:41;;;;;;;50.30;28.10;;;9.60;99.90;;;;;;5058208;28;20039;-74
2021/11/14 05:56:07;;;;;;;49.35;27.63;;;9.50;99.90;;;;;;5074981;28;20033;-73
2021/11/14 05:58:41;;;;;;;48.75;28.08;;;9.90;99.90;;;;;;5041212;28;20083;-73
2021/11/14 06:01:15;;;;;;;51.17;27.17;;;9.50;99.90;;;;;;5070089;28;20036;-73
2021/11/14 06:04:06;;;;;;;47.22;27.70;;;9.50;99.90;;;;;;5075893;28;20049;-73
2021/11/14 06:06:32;;;;;;;48.95;27.05;;;9.50;99.90;;;;;;5075852;28;20043;-73
2021/11/14 06:08:57;;;;;;;50.90;27.63;;;9.50;99.90;;;;;;5058033;28;20049;-73
2021/11/14 06:11:24;;;;;;;52.53;28.13;;;9.60;99.90;;;;;;5038347;28;20072;-73
2021/11/14 06:13:52;;;;;;;46.70;26.90;;;9.80;99.90;;;;;;5040287;28;20052;-73
2021/11/14 06:16:18;;;;;;;53.55;29.02;;;9.50;99.90;;;;;;5056944;28;20120;-73
2021/11/14 06:18:44;;;;;;;50.72;27.10;;;9.60;99.90;;;;;;5075663;28;20049;-74
2021/11/14 06:21:10;;;;;;;50.58;29.52;;;10.20;99.90;;;;;;5026800;28;20040;-74
2021/11/14 06:23:35;;;;;;;48.80;27.70;;;9.40;99.90;;;;;;5057635;28;20041;-74
2021/11/14 06:26:01;;;;;;;52.00;27.05;;;9.40;99.90;;;;;;5075441;28;20044;-74
2021/11/14 06:28:27;;;;;;;51.05;27.73;;;9.40;99.90;;;;;;5055216;28;20194;-74
2021/11/14 06:30:53;;;;;;;54.90;26.75;;;9.40;99.90;;;;;;5075043;28;20036;-74
2021/11/14 06:33:18;;;;;;;50.08;26.60;;;9.40;99.90;;;;;;5075177;28;20393;-74
2021/11/14 06:35:44;;;;;;;49.70;27.33;;;9.40;99.90;;;;;;5057617;28;20098;-73
2021/11/14 06:38:10;;;;;;;50.10;26.38;;;9.90;99.90;;;;;;5056980;28;20043;-78
2021/11/14 06:40:36;;;;;;;45.20;25.35;;;9.40;99.90;;;;;;5075403;28;20040;-78
2021/11/14 06:43:02;;;;;;;46.25;25.27;;;9.30;99.90;;;;;;5074993;28;20037;-77
2021/11/14 06:45:27;;;;;;;46.95;26.40;;;9.40;99.90;;;;;;5073701;28;20094;-78
2021/11/14 06:47:53;;;;;;;45.83;25.80;;;9.40;99.90;;;;;;5056682;28;20082;-78
2021/11/14 06:50:19;;;;;;;47.58;25.58;;;9.50;99.90;;;;;;5040676;28;20037;-78
2021/11/14 06:52:45;;;;;;;44.67;25.65;;;9.20;99.90;;;;;;5075433;28;20043;-77
2021/11/14 06:55:14;;;;;;;44.75;26.08;;;9.40;99.90;;;;;;5056274;28;20079;-78
2021/11/14 06:57:40;;;;;;;49.25;27.05;;;9.40;99.90;;;;;;5056896;28;20045;-77
2021/11/14 07:00:12;;;;;;;45.75;25.92;;;9.50;99.90;;;;;;5074417;28;20033;-78
2021/11/14 07:02:39;;;;;;;39.17;23.98;;;9.40;99.90;;;;;;5054919;28;20040;-78
2021/11/14 07:05:06;;;;;;;44.10;25.08;;;9.50;99.90;;;;;;5074657;28;20392;-78
2021/11/14 07:07:32;;;;;;;43.20;24.45;;;9.40;99.90;;;;;;5042769;28;20043;-78
2021/11/14 07:09:58;;;;;;;44.03;26.10;;;9.50;99.90;;;;;;5074759;28;20041;-78
2021/11/14 07:12:26;;;;;;;40.20;24.85;;;9.40;99.90;;;;;;5074463;28;20500;-73
2021/11/14 07:14:52;;;;;;;43.20;24.67;;;9.50;99.90;;;;;;5056949;28;20170;-73
2021/11/14 07:17:18;;;;;;;41.30;24.27;;;9.50;99.90;;;;;;5074425;28;20039;-77
2021/11/14 07:19:44;;;;;;;39.92;23.48;;;9.50;99.90;;;;;;5072563;28;20033;-77
2021/11/14 07:22:10;;;;;;;40.60;23.60;;;9.50;99.90;;;;;;5055900;28;20040;-77
2021/11/14 07:24:36;;;;;;;45.42;25.27;;;9.50;99.90;;;;;;5056219;28;20055;-76
2021/11/14 07:27:02;;;;;;;40.75;24.48;;;9.60;99.90;;;;;;5022615;28;20052;-76
2021/11/14 07:29:28;;;;;;;41.40;23.83;;;9.50;99.90;;;;;;5071862;28;20124;-77
2021/11/14 07:31:54;;;;;;;40.20;24.73;;;9.50;99.90;;;;;;5056413;28;20127;-78
2021/11/14 07:34:20;;;;;;;39.78;24.95;;;9.60;99.90;;;;;;5074317;28;20123;-73
2021/11/14 07:36:45;;;;;;;45.90;25.13;;;9.60;99.90;;;;;;5056173;28;20043;-73
2021/11/14 07:39:11;;;;;;;42.85;24.70;;;9.60;99.90;;;;;;5056081;28;20120;-74
2021/11/14 07:41:37;;;;;;;46.88;25.80;;;9.50;99.90;;;;;;5073956;28;20033;-74
2021/11/14 07:44:03;;;;;;;42.45;25.05;;;9.60;99.90;;;;;;5054098;28;20075;-77
2021/11/14 07:46:29;;;;;;;46.00;25.58;;;9.60;99.90;;;;;;5039425;28;20465;-77
2021/11/14 07:48:56;;;;;;;44.65;26.25;;;10.10;99.90;;;;;;5055974;28;20044;-77
2021/11/14 07:51:22;;;;;;;43.15;25.52;;;9.60;99.90;;;;;;5074071;28;20094;-74
2021/11/14 07:53:48;;;;;;;43.63;24.77;;;9.60;99.90;;;;;;5073743;28;20040;-74
2021/11/14 07:56:14;;;;;;;48.88;25.30;;;9.60;99.90;;;;;;5055976;28;20543;-74
2021/11/14 07:58:41;;;;;;;46.20;25.92;;;9.60;99.90;;;;;;5073269;28;20032;-77
2021/11/14 08:01:07;;;;;;;40.75;24.95;;;9.70;99.90;;;;;;5071658;28;20394;-77
2021/11/14 08:03:33;;;;;;;48.33;25.52;;;10.40;99.90;;;;;;5055325;28;20041;-77
2021/11/14 08:06:03;;;;;;;41.78;24.48;;;9.60;99.90;;;;;;5055800;28;20039;-78
2021/11/14 08:08:28;;;;;;;42.92;24.70;;;9.70;99.90;;;;;;5055439;28;20037;-77
2021/11/14 08:10:55;;;;;;;46.45;25.77;;;10.00;99.90;;;;;;5073663;28;20036;-73
2021/11/14 08:13:21;;;;;;;45.75;25.85;;;9.60;99.90;;;;;;5055811;28;20556;-74
2021/11/14 08:15:47;;;;;;;48.00;25.65;;;9.60;99.90;;;;;;5055597;28;20123;-73
2021/11/14 08:18:14;;;;;;;45.88;25.75;;;9.60;99.90;;;;;;5037428;28;20098;-73
2021/11/14 08:20:40;;;;;;;46.53;25.95;;;9.60;99.90;;;;;;5055466;28;20117;-74
2021/11/14 08:23:07;;;;;;;45.35;26.58;;;9.60;99.90;;;;;;5073532;28;20120;-74
2021/11/14 08:25:34;;;;;;;44.33;26.13;;;9.60;99.90;;;;;;5039199;28;20463;-73
2021/11/14 08:28:00;;;;;;;47.78;26.55;;;9.60;99.90;;;;;;5073087;28;20131;-73
2021/11/14 08:30:27;;;;;;;44.35;25.50;;;9.60;99.90;;;;;;5038699;28;20043;-74
2021/11/14 08:32:53;;;;;;;47.42;26.45;;;9.60;99.90;;;;;;5054706;28;20055;-73
2021/11/14 08:35:20;;;;;;;51.92;26.83;;;9.50;99.90;;;;;;5053698;28;20016;-74
2021/11/14 08:37:48;;;;;;;47.15;26.00;;;9.60;99.90;;;;;;5072562;28;20107;-73
2021/11/14 08:40:14;;;;;;;47.80;26.88;;;9.60;99.90;;;;;;5055208;28;20453;-73
2021/11/14 08:42:40;;;;;;;49.03;27.77;;;9.60;99.90;;;;;;5055287;28;20396;-73
2021/11/14 08:45:07;;;;;;;53.45;28.75;;;9.60;99.90;;;;;;5054850;28;20036;-73
2021/11/14 08:47:33;;;;;;;51.17;27.35;;;9.50;99.90;;;;;;5055175;28;20062;-73
2021/11/14 08:49:59;;;;;;;48.80;28.30;;;9.50;99.90;;;;;;5054511;28;20048;-73
2021/11/14 08:52:26;;;;;;;51.03;28.20;;;9.50;99.90;;;;;;5053004;28;20093;-73
2021/11/14 08:54:52;;;;;;;54.55;30.20;;;10.50;99.90;;;;;;5072921;28;20374;-73
2021/11/14 08:57:18;;;;;;;56.58;29.55;;;9.50;99.90;;;;;;5054027;28;20047;-74
2021/11/14 08:59:48;;;;;;;53.80;30.25;;;9.60;99.90;;;;;;5070504;28;20044;-77
2021/11/14 09:02:14;;;;;;;56.05;31.08;;;9.90;99.90;;;;;;5043733;28;20481;-76
2021/11/14 09:04:41;;;;;;;59.55;31.10;;;9.50;99.90;;;;;;5072608;28;20167;-74
2021/11/14 09:07:07;;;;;;;60.33;32.80;;;9.50;99.90;;;;;;5050052;28;20041;-78
2021/11/14 09:09:33;;;;;;;57.40;31.63;;;9.50;99.90;;;;;;5053935;28;20054;-78
2021/11/14 09:11:58;;;;;;;59.60;30.70;;;9.60;99.90;;;;;;5072313;28;20055;-77
2021/11/14 09:14:25;;;;;;;61.58;30.90;;;9.50;99.90;;;;;;5054269;28;20415;-77
2021/11/14 09:16:52;;;;;;;61.88;31.77;;;9.50;99.90;;;;;;5071104;28;20040;-77
2021/11/14 09:19:19;;;;;;;63.75;32.90;;;9.50;99.90;;;;;;5064923;28;20048;-77
2021/11/14 09:21:45;;;;;;;62.38;32.85;;;9.50;99.90;;;;;;5070059;28;20039;-80
2021/11/14 09:24:12;;;;;;;61.53;32.45;;;9.60;99.90;;;;;;5072184;28;20046;-78
2021/11/14 09:26:38;;;;;;;61.92;31.50;;;9.50;99.90;;;;;;5051371;28;20040;-75
2021/11/14 09:29:05;;;;;;;59.42;31.90;;;9.60;99.90;;;;;;5054064;28;20062;-77
2021/11/14 09:31:33;;;;;;;55.40;28.77;;;9.50;99.90;;;;;;5071953;28;20037;-78
2021/11/14 09:33:59;;;;;;;53.28;29.70;;;9.50;99.90;;;;;;5037476;28;20041;-74
2021/11/14 09:36:30;;;;;;;57.28;29.48;;;9.60;99.90;;;;;;5053590;28;20044;-72
2021/11/14 09:39:03;;;;;;;53.92;28.02;;;9.60;99.90;;;;;;5061717;28;20056;-73
2021/11/14 09:41:30;;;;;;;51.28;27.25;;;9.50;99.90;;;;;;5050366;28;20041;-74
2021/11/14 09:43:59;;;;;;;56.58;28.45;;;9.50;99.90;;;;;;5071987;28;20037;-78
2021/11/14 09:46:27;;;;;;;55.42;29.20;;;9.50;99.90;;;;;;5033395;28;20083;-80
2021/11/14 09:48:57;;;;;;;54.75;28.67;;;9.60;99.90;;;;;;5057348;28;20037;-83
2021/11/14 09:51:23;;;;;;;56.50;28.38;;;9.60;99.90;;;;;;5055936;28;20044;-74
2021/11/14 09:53:49;;;;;;;56.97;28.65;;;9.60;99.90;;;;;;5053739;28;20041;-74
2021/11/14 09:56:15;;;;;;;55.30;28.65;;;9.60;99.90;;;;;;5053587;28;20439;-74
2021/11/14 09:58:40;;;;;;;58.70;30.23;;;9.60;99.90;;;;;;5023702;28;20049;-74
2021/11/14 10:01:07;;;;;;;52.58;29.20;;;9.60;99.90;;;;;;5072743;28;20562;-81
2021/11/14 10:03:33;;;;;;;56.70;28.48;;;9.60;99.90;;;;;;5041700;28;20089;-74
2021/11/14 10:05:59;;;;;;;50.83;26.73;;;9.60;99.90;;;;;;5039493;28;20112;-74
2021/11/14 10:08:38;;;;;;;52.80;27.65;;;9.60;99.90;;;;;;5054010;28;20432;-74
2021/11/14 10:11:04;;;;;;;53.00;27.80;;;9.70;99.90;;;;;;5037430;28;20089;-74
2021/11/14 10:13:33;;;;;;;50.95;27.05;;;10.00;99.90;;;;;;5071998;28;20464;-74
2021/11/14 10:16:17;;;;;;;52.55;27.48;;;9.60;99.90;;;;;;5037042;28;20044;-74
2021/11/14 10:18:59;;;;;;;57.25;27.88;;;10.10;99.90;;;;;;5053893;28;20076;-74
2021/11/14 10:21:30;;;;;;;52.20;26.83;;;9.60;99.90;;;;;;5053410;28;20032;-74
2021/11/14 10:23:58;;;;;;;47.90;26.40;;;9.60;99.90;;;;;;5062260;28;20032;-74
2021/11/14 10:26:27;;;;;;;48.97;27.02;;;9.70;99.90;;;;;;5071736;28;20094;-74
2021/11/14 10:28:56;;;;;;;47.60;25.15;;;9.90;99.90;;;;;;5053764;28;20106;-74
2021/11/14 10:31:24;;;;;;;50.85;27.58;;;9.60;99.90;;;;;;5056049;28;20041;-81
2021/11/14 10:33:51;;;;;;;52.78;27.27;;;10.10;99.90;;;;;;5076120;28;20396;-81
2021/11/14 10:36:16;;;;;;;45.95;26.48;;;9.70;99.90;;;;;;5040931;28;20045;-80
2021/11/14 10:38:42;;;;;;;46.83;26.10;;;9.90;99.90;;;;;;5054651;28;20044;-81
2021/11/14 10:41:12;;;;;;;46.13;25.50;;;10.20;99.90;;;;;;5078997;28;20041;-81
2021/11/14 10:43:39;;;;;;;48.70;27.00;;;9.80;99.90;;;;;;5075774;28;20043;-81
2021/11/14 10:46:17;;;;;;;47.13;24.83;;;10.10;99.90;;;;;;5041095;28;20040;-80
2021/11/14 10:48:43;;;;;;;45.08;24.88;;;9.70;99.90;;;;;;5057191;28;20040;-81
2021/11/14 10:51:11;;;;;;;44.97;24.17;;;9.70;99.90;;;;;;5057172;28;20062;-80
2021/11/14 10:53:38;;;;;;;46.25;24.63;;;9.70;99.90;;;;;;5057324;28;20048;-82
2021/11/14 10:56:11;;;;;;;41.22;24.33;;;10.00;99.90;;;;;;5051640;28;20127;-81
2021/11/14 10:58:40;;;;;;;44.00;25.40;;;10.30;99.90;;;;;;5053715;28;20115;-81
2021/11/14 11:01:20;;;;;;;43.53;24.48;;;9.70;99.90;;;;;;5040492;28;20103;-80
2021/11/14 11:03:52;;;;;;;44.00;23.60;;;9.70;99.90;;;;;;5057241;28;20051;-81
2021/11/14 11:06:25;;;;;;;41.10;23.75;;;9.70;99.90;;;;;;5075085;28;20044;-81
2021/11/14 11:08:51;;;;;;;41.22;23.80;;;9.70;99.90;;;;;;5056878;28;20087;-81
2021/11/14 11:11:21;;;;;;;41.72;23.52;;;9.70;99.90;;;;;;5053543;28;20044;-81
2021/11/14 11:13:48;;;;;;;36.08;21.73;;;9.80;99.90;;;;;;5040698;28;20431;-81
2021/11/14 11:16:29;;;;;;;41.08;22.02;;;9.70;99.90;;;;;;5073318;28;20040;-81
2021/11/14 11:19:01;;;;;;;35.83;20.83;;;9.70;99.90;;;;;;5054602;28;20131;-81
2021/11/14 11:21:35;;;;;;;39.30;21.48;;;10.30;99.90;;;;;;5056807;28;20432;-81
2021/11/14 11:24:16;;;;;;;41.05;22.58;;;9.70;99.90;;;;;;5075945;28;20038;-81
2021/11/14 11:26:56;;;;;;;40.72;22.13;;;9.70;99.90;;;;;;5044270;28;20045;-81
2021/11/14 11:29:22;;;;;;;41.90;22.25;;;10.00;99.90;;;;;;5057131;28;20113;-81
2021/11/14 11:31:49;;;;;;;40.70;22.27;;;9.70;99.90;;;;;;5075897;28;20032;-81
2021/11/14 11:34:19;;;;;;;43.92;21.55;;;9.70;99.90;;;;;;5055124;28;20041;-80
2021/11/14 11:36:46;;;;;;;45.10;23.20;;;9.70;99.90;;;;;;5040479;28;20049;-81
2021/11/14 11:39:12;;;;;;;46.83;23.25;;;9.70;99.90;;;;;;5057546;28;20114;-81
2021/11/14 11:41:45;;;;;;;44.95;23.95;;;10.20;99.90;;;;;;5074886;28;20033;-81
2021/11/14 11:44:12;;;;;;;41.28;22.48;;;9.70;99.90;;;;;;5040507;28;20041;-81
2021/11/14 11:46:42;;;;;;;46.15;23.88;;;9.70;99.90;;;;;;5057270;28;20036;-81
2021/11/14 11:49:14;;;;;;;45.75;23.83;;;9.70;99.90;;;;;;5075716;28;20044;-80
2021/11/14 11:51:49;;;;;;;46.80;24.23;;;9.70;99.90;;;;;;5033457;28;20044;-81
2021/11/14 11:54:24;;;;;;;48.42;24.30;;;9.70;99.90;;;;;;5056766;28;20036;-81
2021/11/14 11:56:55;;;;;;;47.00;24.23;;;9.70;99.90;;;;;;5058406;28;20051;-81
2021/11/14 11:59:31;;;;;;;45.40;23.85;;;10.30;99.90;;;;;;5076109;28;20484;-81
2021/11/14 12:01:59;;;;;;;;;;;9.80;99.90;;;;;;5058058;28;20068;-81
2021/11/14 12:04:43;;;;;;;41.75;23.00;;;9.70;99.90;;;;;;5057470;28;19923;-81
2021/11/14 12:07:16;;;;;;;43.42;22.70;;;9.80;99.90;;;;;;5055970;28;20037;-81
2021/11/14 12:09:47;;;;;;;39.22;21.90;;;9.80;99.90;;;;;;5066876;28;20397;-81
2021/11/14 12:12:18;;;;;;;41.58;22.73;;;9.80;99.90;;;;;;5057038;28;20053;-82
2021/11/14 12:14:44;;;;;;;41.42;22.45;;;9.80;99.90;;;;;;5057039;28;20041;-81
2021/11/14 12:17:10;;;;;;;47.08;23.38;;;10.00;99.90;;;;;;5060192;28;20047;-81
2021/11/14 12:19:38;;;;;;;43.78;24.15;;;9.80;99.90;;;;;;5074625;28;20051;-81
2021/11/14 12:22:10;;;;;;;46.47;23.83;;;10.00;99.90;;;;;;5058230;28;20044;-81
2021/11/14 12:24:55;;;;;;;42.03;24.70;;;9.80;99.90;;;;;;5054402;28;20033;-81
2021/11/14 12:27:34;;;;;;;44.25;23.73;;;9.90;99.90;;;;;;5049363;28;20055;-81
2021/11/14 12:30:12;;;;;;;40.72;22.95;;;9.90;99.90;;;;;;5057312;28;20477;-81
2021/11/14 12:32:47;;;;;;;44.30;24.52;;;9.90;99.90;;;;;;5077187;28;20048;-81
2021/11/14 12:35:37;;;;;;;46.67;24.85;;;9.80;99.90;;;;;;5030348;28;20123;-81